Latest Weather Observations for Moruya Airport

IDN60901

Issued at 2:21 pm EDT Tuesday 27 January 2015 (issued every 10 minutes, with the page automatically refreshed every 10 minutes)

About weather observations | Map of Canberra area stations | Latest observations for Canberra area | Other Formats
Station Details ID: 069148 Name: MORUYA AIRPORT AWS Lat: -35.90 Lon: 150.14 Height: 4.0 m
Data from the previous 72 hours. | See also: Recent months for locations in Aust Capital Territory
Date/Time
EDT
Tmp

°C
App
Tmp
°C
Dew
Point
°C
Rel
Hum
%
Delta-T

°C
Wind Press
QNH
hPa
Press
MSL
hPa
Rain
since
9 am
mm
Dir
 
Spd
km/h
Gust
km/h
Spd
kts
Gust
kts
27/02:00pm 18.7 18.1 15.6 82 1.8 SSE 13 17 7 9 1015.4 1015.3 0.4
27/01:30pm 18.8 17.9 14.9 78 2.3 SSE 13 19 7 10 1015.5 1015.4 0.4
27/01:00pm 19.5 19.6 16.5 83 1.8 S 11 19 6 10 1015.5 1015.4 0.4
27/12:30pm 18.8 18.6 17.5 92 0.8 SW 15 20 8 11 1015.7 1015.6 0.4
27/12:00pm 17.1 17.8 17.1 100 0.0 SW 9 15 5 8 1016.2 1016.1 0.4
27/11:30am 16.6 17.1 16.6 100 0.0 WSW 9 15 5 8 1016.4 1016.3 0.4
27/11:00am 15.7 15.1 15.7 100 0.0 W 13 19 7 10 1016.4 1016.3 0.2
27/10:30am 15.7 15.5 15.7 100 0.0 W 11 17 6 9 1016.3 1016.2 0.2
27/10:00am 15.3 14.9 15.3 100 0.0 SW 11 15 6 8 1016.2 1016.1 0.0
27/09:30am 15.4 13.9 15.4 100 0.0 SW 17 22 9 12 1016.3 1016.2 0.0
27/08:30am 15.3 15.3 15.3 100 0.0 WSW 9 15 5 8 1016.2 1016.1 2.8
27/08:00am 15.1 14.7 15.1 100 0.0 WSW 11 17 6 9 1015.8 1015.7 2.8
27/07:53am 15.1 14.7 15.1 100 0.0 SW 11 17 6 9 1015.7 1015.6 2.8
27/07:41am 15.1 14.3 15.1 100 0.0 SW 13 19 7 10 1015.7 1015.6 2.8
27/07:30am 14.9 14.8 14.9 100 0.0 WSW 9 17 5 9 1015.7 1015.6 2.8
27/07:00am 14.8 15.0 14.8 100 0.0 WSW 7 9 4 5 1015.4 1015.3 2.8
27/06:30am 14.7 14.5 14.7 100 0.0 WSW 9 13 5 7 1015.2 1015.1 2.8
27/05:30am 14.6 14.4 14.6 100 0.0 W 9 13 5 7 1015.2 1015.1 2.8
27/05:00am 14.7 14.1 14.7 100 0.0 WSW 11 17 6 9 1015.2 1015.1 2.8
27/04:30am 14.7 14.5 14.7 100 0.0 WSW 9 13 5 7 1015.2 1015.1 2.8
27/04:00am 14.7 14.9 14.7 100 0.0 WSW 7 11 4 6 1015.4 1015.3 2.8
27/03:30am 14.8 15.0 14.8 100 0.0 WSW 7 11 4 6 1015.5 1015.4 2.8
27/03:00am 14.9 15.4 14.9 100 0.0 SW 6 13 3 7 1015.7 1015.6 2.8
27/02:30am 14.9 14.4 14.9 100 0.0 WSW 11 15 6 8 1015.7 1015.6 2.6
27/02:00am 14.9 14.8 14.9 100 0.0 WSW 9 13 5 7 1016.1 1016.0 2.6
27/01:30am 15.0 14.9 15.0 100 0.0 WSW 9 13 5 7 1016.5 1016.4 2.6
27/01:00am 15.0 14.9 15.0 100 0.0 WSW 9 15 5 8 1016.6 1016.5 2.6
27/12:30am 15.2 14.8 15.2 100 0.0 WSW 11 17 6 9 1016.8 1016.7 2.4
27/12:14am 15.3 15.3 15.3 100 0.0 SW 9 13 5 7 1016.9 1016.8 2.4
 
Date/Time
EDT
Tmp

°C
App
Tmp
°C
Dew
Point
°C
Rel
Hum
%
Delta-T

°C
Wind Press
QNH
hPa
Press
MSL
hPa
Rain
since
9 am
mm
Dir
 
Spd
km/h
Gust
km/h
Spd
kts
Gust
kts
26/11:59pm 15.3 15.7 15.3 100 0.0 W 7 9 4 5 1017.1 1017.0 2.2
26/11:30pm 15.4 15.5 15.4 100 0.0 WSW 9 13 5 7 1017.3 1017.2 2.2
26/11:17pm 15.4 15.1 15.4 100 0.0 SW 11 17 6 9 1017.4 1017.3 2.2
26/11:03pm 15.6 15.7 15.6 100 0.0 SW 9 13 5 7 1017.5 1017.4 2.2
26/11:02pm 15.6 15.7 15.6 100 0.0 WSW 9 13 5 7 1017.5 1017.4 2.2
26/11:00pm 15.6 15.7 15.6 100 0.0 WSW 9 13 5 7 1017.5 1017.4 2.2
26/10:55pm 15.7 16.3 15.7 100 0.0 WSW 7 11 4 6 1017.5 1017.4 2.2
26/10:31pm 15.9 16.7 15.9 100 0.0 SW 6 11 3 6 1017.7 1017.6 1.6
26/10:30pm 15.9 16.7 15.9 100 0.0 SW 6 11 3 6 1017.7 1017.6 1.6
26/10:15pm 16.1 16.9 15.8 98 0.2 W 6 13 3 7 1017.5 1017.4 0.0
26/10:00pm 16.3 16.0 15.5 95 0.5 W 11 15 6 8 1017.4 1017.3 0.0
26/09:30pm 16.8 17.3 15.5 92 0.8 SW 7 11 4 6 1017.2 1017.1 0.0
26/09:00pm 17.5 16.8 14.2 81 1.9 S 11 15 6 8 1017.0 1016.9 0.0
26/08:30pm 17.8 17.1 14.3 80 2.0 SSE 11 17 6 9 1016.7 1016.6 0.0
26/08:00pm 17.4 16.6 15.0 86 1.4 SSE 13 19 7 10 1016.5 1016.4 0.0
26/07:30pm 17.7 16.6 14.2 80 2.0 SE 13 17 7 9 1016.3 1016.2 0.0
26/07:00pm 18.2 16.5 14.7 80 2.0 SE 17 22 9 12 1015.9 1015.8 0.0
26/06:30pm 18.7 17.8 13.8 73 2.8 S 11 15 6 8 1015.6 1015.5 0.0
26/05:30pm 18.9 17.0 13.1 69 3.3 SSE 15 20 8 11 1015.4 1015.3 0.0
26/05:00pm 18.9 17.4 13.1 69 3.3 SSE 13 19 7 10 1015.3 1015.2 0.0
26/04:30pm 19.0 16.9 12.5 66 3.6 SE 15 19 8 10 1015.5 1015.4 0.0
26/04:00pm 19.0 16.5 12.3 65 3.7 SSE 17 20 9 11 1015.5 1015.4 0.0
26/03:30pm 19.1 16.8 11.7 62 4.1 SSE 15 22 8 12 1015.4 1015.3 0.0
26/03:00pm 19.7 17.5 12.2 62 4.2 SSE 15 22 8 12 1015.4 1015.3 0.0
26/02:30pm 19.3 16.6 11.6 61 4.2 SSE 17 26 9 14 1015.5 1015.4 0.0
26/02:00pm 19.9 17.2 11.7 59 4.5 SSE 17 24 9 13 1015.6 1015.5 0.0
26/01:30pm 20.5 17.3 11.4 56 5.0 SSE 19 26 10 14 1015.6 1015.5 0.0
26/01:00pm 19.8 16.4 10.5 55 5.0 SSE 19 28 10 15 1015.8 1015.7 0.0
26/12:30pm 19.5 15.8 9.4 52 5.3 SE 19 24 10 13 1015.9 1015.8 0.0
26/12:00pm 20.2 16.9 9.7 51 5.6 SSE 17 26 9 14 1015.8 1015.7 0.0
26/11:30am 19.3 16.7 10.6 57 4.7 S 15 22 8 12 1015.9 1015.8 0.0
26/11:00am 18.6 16.1 11.2 62 4.0 SSW 15 20 8 11 1015.7 1015.6 0.0
26/10:30am 18.3 16.0 11.8 66 3.6 SW 15 20 8 11 1015.7 1015.6 0.0
26/10:00am 17.7 15.4 11.9 69 3.2 SW 15 20 8 11 1015.7 1015.6 0.0
26/09:30am 17.4 15.8 11.4 68 3.3 SSW 11 17 6 9 1015.6 1015.5 0.0
26/09:00am 17.6 16.6 13.3 76 2.4 SW 11 15 6 8 1015.5 1015.4 0.0
26/08:30am 16.9 16.3 13.4 80 2.0 WSW 9 15 5 8 1015.2 1015.1 0.0
26/08:00am 16.4 15.6 12.9 80 1.9 WSW 9 13 5 7 1015.0 1014.9 0.0
26/07:30am 16.4 16.1 13.3 82 1.7 WSW 7 11 4 6 1014.6 1014.5 0.0
26/07:00am 16.3 16.0 13.2 82 1.7 WSW 7 11 4 6 1014.3 1014.2 0.0
26/06:30am 16.1 15.8 13.4 84 1.5 WSW 7 13 4 7 1013.9 1013.8 0.0
26/06:00am 16.1 15.8 13.4 84 1.5 WSW 7 11 4 6 1013.6 1013.5 0.0
26/05:30am 16.3 15.7 13.6 84 1.5 WSW 9 15 5 8 1013.2 1013.1 0.0
26/05:00am 16.5 15.0 13.2 81 1.8 WSW 13 17 7 9 1012.7 1012.6 0.0
26/04:30am 16.8 15.8 13.3 80 2.0 SW 11 19 6 10 1012.5 1012.4 0.0
26/04:00am 17.0 15.8 12.9 77 2.3 SW 11 15 6 8 1012.4 1012.3 0.0
26/03:30am 17.5 15.8 12.6 73 2.7 SW 13 20 7 11 1012.3 1012.2 0.0
26/03:00am 17.9 15.0 12.4 70 3.1 S 19 24 10 13 1012.2 1012.1 0.0
26/02:30am 18.1 15.2 12.3 69 3.2 S 19 26 10 14 1012.1 1012.0 0.0
26/02:00am 18.0 15.5 12.2 69 3.2 S 17 26 9 14 1012.1 1012.0 0.0
26/01:30am 18.1 15.3 12.5 70 3.1 S 19 26 10 14 1012.1 1012.0 0.0
26/01:00am 18.1 15.9 13.2 73 2.8 SSW 17 22 9 12 1012.1 1012.0 0.0
26/12:30am 18.3 16.0 13.0 71 3.0 S 17 24 9 13 1012.1 1012.0 0.0
26/12:00am 18.5 16.0 13.4 72 2.9 S 19 24 10 13 1011.9 1011.8 0.0
 
Date/Time
EDT
Tmp

°C
App
Tmp
°C
Dew
Point
°C
Rel
Hum
%
Delta-T

°C
Wind Press
QNH
hPa
Press
MSL
hPa
Rain
since
9 am
mm
Dir
 
Spd
km/h
Gust
km/h
Spd
kts
Gust
kts
25/11:30pm 18.6 15.4 13.2 71 3.0 S 22 30 12 16 1011.8 1011.7 0.0
25/11:00pm 18.8 16.1 13.4 71 3.1 S 20 35 11 19 1011.5 1011.4 0.0
25/10:30pm 18.8 16.7 13.6 72 3.0 S 17 24 9 13 1011.2 1011.1 0.0
25/10:00pm 18.9 15.1 13.5 71 3.1 S 26 35 14 19 1010.7 1010.6 0.0
25/09:30pm 19.2 17.1 15.1 77 2.4 SSE 20 28 11 15 1010.4 1010.3 0.0
25/09:00pm 18.9 17.2 14.8 77 2.4 S 17 24 9 13 1010.1 1010.0 0.0
25/08:30pm 18.9 15.7 15.4 80 2.1 SSE 26 35 14 19 1009.5 1009.4 0.0
25/08:00pm 19.4 17.5 15.7 79 2.2 SSE 20 28 11 15 1009.0 1008.9 0.0
25/07:30pm 19.6 17.0 15.9 79 2.2 SSE 24 33 13 18 1008.5 1008.4 0.0
25/07:00pm 19.9 18.2 16.2 79 2.2 SSE 20 33 11 18 1007.8 1007.7 0.0
25/06:30pm 20.1 17.6 16.1 78 2.4 SSE 24 33 13 18 1007.2 1007.1 0.0
25/06:00pm 20.1 17.9 15.9 77 2.5 SSE 22 35 12 19 1006.8 1006.7 0.0
25/05:30pm 20.4 17.4 16.8 80 2.2 SSE 28 37 15 20 1006.1 1006.0 0.0
25/05:00pm 20.7 17.9 17.3 81 2.1 SSE 28 43 15 23 1005.6 1005.5 0.0
25/04:30pm 21.0 18.4 17.8 82 2.0 SSE 28 39 15 21 1005.0 1004.9 0.0
25/04:00pm 21.3 18.6 18.5 84 1.8 SSE 30 46 16 25 1004.5 1004.4 0.0
25/03:30pm 22.1 19.4 19.3 84 1.8 SSE 32 43 17 23 1004.0 1003.9 0.0
25/03:00pm 23.3 21.6 19.7 80 2.3 SSE 28 41 15 22 1003.4 1003.3 0.0
25/02:30pm 23.9 22.4 20.2 80 2.4 SSE 28 41 15 22 1003.0 1002.9 0.0
25/02:26pm 23.8 21.8 19.9 79 2.5 SSE 30 44 16 24 1003.0 1002.9 0.0
25/02:00pm 23.3 21.7 20.8 86 1.6 SSE 30 39 16 21 1002.7 1002.6 0.0
25/01:30pm 24.2 22.4 22.3 89 1.3 SSE 35 46 19 25 1001.7 1001.6 0.0
25/01:28pm 24.0 22.0 21.9 88 1.4 SSE 35 46 19 25 1001.7 1001.6 0.0
25/01:00pm 25.7 24.3 23.6 88 1.4 SSE 37 52 20 28 1001.3 1001.2 0.0
25/12:42pm 26.1 26.1 22.4 80 2.5 SE 26 43 14 23 1000.8 1000.7 0.0
25/12:30pm 27.7 28.9 22.2 72 3.7 E 19 24 10 13 1000.3 1000.2 0.0
25/12:00pm 31.7 34.8 22.1 56 6.6 NW 9 20 5 11 1000.1 1000.0 0.0
25/11:30am 30.6 31.8 19.9 52 7.0 NW 13 22 7 12 1000.5 1000.4 0.0
25/11:00am 30.1 31.6 20.6 56 6.3 NW 13 20 7 11 1000.7 1000.6 0.0
25/10:30am 29.1 30.2 19.7 57 6.1 NW 13 20 7 11 1000.8 1000.7 0.0
25/10:00am 28.2 30.5 20.7 63 5.0 NW 9 17 5 9 1000.9 1000.8 0.0
25/09:30am 26.8 28.7 21.3 72 3.7 WNW 13 20 7 11 1000.9 1000.8 0.0
25/09:00am 25.4 29.2 21.7 80 2.5 NNW 4 11 2 6 1001.0 1000.9 14.2
25/08:30am 23.6 26.5 20.7 84 1.9 NE 6 9 3 5 1001.0 1000.9 14.2
25/08:06am 22.3 26.8 22.3 100 0.0 NNW 2 7 1 4 1000.8 1000.7 14.2
25/08:00am 21.9 26.6 21.9 100 0.0 CALM 0 9 0 5 1000.7 1000.6 14.2
25/07:30am 19.9 23.6 19.9 100 0.0 CALM 0 7 0 4 1000.5 1000.4 14.2
25/07:00am 18.7 21.8 18.7 100 0.0 CALM 0 0 0 0 1000.2 1000.1 14.2
25/06:39am 18.2 21.1 18.2 100 0.0 CALM 0 0 0 0 1000.4 1000.3 14.2
25/06:30am 18.1 20.6 18.1 100 0.0 SW 2 6 1 3 1000.3 1000.2 14.2
25/06:27am 18.0 19.7 18.0 100 0.0 W 6 9 3 5 1000.3 1000.2 14.2
25/06:25am 18.0 19.7 18.0 100 0.0 WNW 6 9 3 5 1000.3 1000.2 14.2
25/06:00am 18.0 20.8 18.0 100 0.0 CALM 0 0 0 0 1000.1 1000.0 14.2
25/05:30am 18.3 20.9 18.3 100 0.0 NNW 2 7 1 4 1000.0 999.9 14.0
25/05:00am 17.9 20.7 17.9 100 0.0 CALM 0 0 0 0 999.9 999.8 14.0
25/04:30am 18.4 21.4 18.4 100 0.0 CALM 0 0 0 0 1000.3 1000.2 14.0
25/04:05am 18.4 21.4 18.4 100 0.0 CALM 0 0 0 0 1000.2 1000.1 14.0
25/04:00am 18.6 21.7 18.6 100 0.0 CALM 0 6 0 3 1000.2 1000.1 14.0
25/03:30am 18.8 21.6 18.8 100 0.0 NNW 2 6 1 3 1000.6 1000.5 14.0
25/03:00am 19.0 22.3 19.0 100 0.0 CALM 0 0 0 0 1001.1 1001.0 14.0
25/02:30am 19.1 22.0 19.1 100 0.0 NW 2 7 1 4 1001.5 1001.4 14.0
25/02:00am 19.6 23.1 19.6 100 0.0 CALM 0 0 0 0 1001.8 1001.7 14.0
25/01:30am 19.9 22.4 19.9 100 0.0 WNW 6 7 3 4 1002.3 1002.2 14.0
25/01:00am 20.3 22.8 20.3 100 0.0 N 7 9 4 5 1002.5 1002.4 14.0
25/12:51am 20.4 23.0 20.4 100 0.0 NNW 7 9 4 5 1002.7 1002.6 14.0
25/12:30am 20.6 22.1 20.6 100 0.0 N 13 17 7 9 1003.0 1002.9 14.0
25/12:29am 20.6 22.1 20.6 100 0.0 NNE 13 17 7 9 1003.0 1002.9 14.0
25/12:12am 20.9 23.0 20.9 100 0.0 NNE 11 19 6 10 1003.4 1003.3 14.0
25/12:00am 20.8 22.8 20.8 100 0.0 NE 11 17 6 9 1003.2 1003.1 14.0
 
Date/Time
EDT
Tmp

°C
App
Tmp
°C
Dew
Point
°C
Rel
Hum
%
Delta-T

°C
Wind Press
QNH
hPa
Press
MSL
hPa
Rain
since
9 am
mm
Dir
 
Spd
km/h
Gust
km/h
Spd
kts
Gust
kts
24/11:30pm 21.0 24.8 21.0 100 0.0 SSW 2 9 1 5 1003.3 1003.2 14.0
24/11:11pm 20.8 23.8 20.8 100 0.0 SW 6 9 3 5 1003.3 1003.2 14.0
24/11:00pm 20.7 24.8 20.7 100 0.0 CALM 0 0 0 0 1003.5 1003.4 14.0
24/10:30pm 20.9 25.1 20.9 100 0.0 CALM 0 6 0 3 1003.8 1003.7 14.0
24/10:11pm 21.2 24.2 21.2 100 0.0 NE 7 9 4 5 1004.2 1004.1 14.0
24/10:09pm 21.1 24.0 21.1 100 0.0 NE 7 9 4 5 1004.3 1004.2 14.0
24/10:00pm 21.0 24.1 21.0 100 0.0 NNE 6 9 3 5 1004.6 1004.5 14.0
24/09:30pm 21.2 24.8 21.2 100 0.0 NE 4 7 2 4 1004.8 1004.7 13.6
24/09:26pm 21.2 25.1 21.2 100 0.0 N 2 7 1 4 1004.8 1004.7 13.4
24/09:00pm 21.0 24.8 21.0 100 0.0 NW 2 7 1 4 1004.7 1004.6 12.8
24/08:30pm 21.0 23.5 21.0 100 0.0 N 9 15 5 8 1004.7 1004.6 12.4
24/08:00pm 21.4 25.8 21.4 100 0.0 CALM 0 0 0 0 1004.7 1004.6 12.2
24/07:37pm 21.5 26.0 21.5 100 0.0 CALM 0 0 0 0 1004.7 1004.6 12.2
24/07:30pm 21.4 25.8 21.4 100 0.0 CALM 0 0 0 0 1004.7 1004.6 12.2
24/07:13pm 21.4 24.1 21.4 100 0.0 N 9 13 5 7 1004.8 1004.7 11.4
24/07:00pm 21.5 24.6 21.5 100 0.0 NW 7 15 4 8 1005.0 1004.9 10.8
24/06:30pm 21.6 25.7 21.6 100 0.0 NNW 2 9 1 5 1005.4 1005.3 10.0
24/06:00pm 22.2 25.7 22.2 100 0.0 NE 7 11 4 6 1003.7 1003.6 9.0
24/05:33pm 21.8 24.0 21.8 100 0.0 WNW 13 20 7 11 1003.0 1002.9 8.4
24/05:30pm 21.7 23.4 21.7 100 0.0 WNW 15 28 8 15 1003.0 1002.9 8.4
24/05:13pm 21.4 23.3 21.4 100 0.0 WNW 13 30 7 16 1003.2 1003.1 7.4
24/05:05pm 21.4 23.3 21.4 100 0.0 N 13 20 7 11 1003.4 1003.3 6.4
24/05:00pm 21.5 23.1 21.5 100 0.0 N 15 22 8 12 1003.7 1003.6 6.0
24/04:30pm 23.1 26.3 23.1 100 0.0 N 11 19 6 10 1003.9 1003.8 1.4
24/04:28pm 23.2 26.9 23.2 100 0.0 N 9 13 5 7 1003.9 1003.8 1.2
24/04:00pm 23.6 26.5 22.4 93 0.8 NE 11 19 6 10 1003.5 1003.4 0.0
24/03:30pm 23.7 25.8 22.5 93 0.8 ESE 15 20 8 11 1003.9 1003.8 0.0
24/03:00pm 24.1 26.6 22.5 91 1.1 ENE 13 17 7 9 1004.2 1004.1 0.0
24/02:30pm 25.6 28.1 24.4 93 0.8 ENE 19 24 10 13 1003.7 1003.6 0.0

Latest Capital City Observations: Canberra | Sydney | Melbourne | Brisbane | Adelaide | Perth | Hobart | Darwin

Other Formats:

Comma delimited format used in spreadsheet applications
http://www.bom.gov.au/fwo/IDN60903/IDN60903.95937.axf

JavaScript Object Notation format (JSON) in row-major order
http://www.bom.gov.au/fwo/IDN60903/IDN60903.95937.json